航空気象通報

ウインドサーファーのための航空気象通報による風予報です。

4/27の航空気象通報(国内)

2008年04月26日 18時03分06秒 | TAF
羽田空港
TAF RJTT 260839Z 261812 34005KT 9999 FEW015 BKN030
TEMPO 2124 4000 SHRA BR
BECMG 0003 10009KT
BECMG 0306 17017KT
日本時間27日03-09時:340度から5ノットの風
09-12時:風が変化
12時:100度から9ノットの風
12-15時:風が変化
15-21時:170度から17ノットの風

那覇空港
TAF ROAH 260838Z 261812 06008KT 9999 FEW035
日本時間27日03-21時:060度から8ノットの風
コメント
この記事をはてなブックマークに追加